Nyac, Alaska
Current Conditions -  °F | °C
As of 6:56 AM on Tuesday 21 Oct 2014 (Local Time) from PALG Reporting Station
Overcast Overcast  
Wind Chill: 19°   Ceiling: 3900
Heat Index: 27°   Visibility: 10mi
Dew Point: 23°   Wind: 8mph
Humidity: 84%   Direction: 90°E
Pressure: 29.3"   Gusts: NA
Location:  61°N, 159.94°W
Report Text: PALG 211456Z AUTO 09007KT 10SM OVC039 M03/M05 A2930 RMK AO2 TSNO 53013 T10271050 SLP926 $
Loading
Personal Weather Stations






























Interactive Weather Map
Tropical Storm Tracking
New forecast layout! Learn more

10-Day Weather Forecast

Advertisements
Track Severe Weather on mobile